createdAt,value
2018-05-01T00:00:19.202Z,5.17
2018-05-01T00:02:46.674Z,5.00
2018-05-01T00:05:14.095Z,7.50
2018-05-01T00:07:42.286Z,10.00
2018-05-01T00:10:09.775Z,6.07
2018-05-01T00:12:37.231Z,5.00
2018-05-01T00:15:04.677Z,8.27
2018-05-01T00:17:32.095Z,6.50
2018-05-01T00:20:00.291Z,6.93
2018-05-01T00:22:27.723Z,15.27
2018-05-01T00:24:55.925Z,2.47
2018-05-01T00:27:23.396Z,4.87
2018-05-01T00:29:50.816Z,6.80
2018-05-01T00:32:19.043Z,5.50
2018-05-01T00:34:46.463Z,7.20
2018-05-01T00:37:13.888Z,8.63
2018-05-01T00:39:42.087Z,4.57
2018-05-01T00:42:10.307Z,7.43
2018-05-01T00:44:37.726Z,6.13
2018-05-01T00:47:05.219Z,4.77
2018-05-01T00:49:32.639Z,4.77
2018-05-01T00:52:00.072Z,5.83
2018-05-01T00:54:28.293Z,2.90
2018-05-01T00:56:55.709Z,4.97
2018-05-01T00:59:23.969Z,3.83
2018-05-01T01:01:52.914Z,6.13
2018-05-01T01:04:20.339Z,6.23
2018-05-01T01:06:48.555Z,3.03
2018-05-01T01:09:15.987Z,5.47
2018-05-01T01:11:43.518Z,6.83
2018-05-01T01:14:12.449Z,10.77
2018-05-01T01:16:39.891Z,3.60
2018-05-01T01:19:08.100Z,6.43
2018-05-01T01:21:35.519Z,4.93
2018-05-01T01:24:03.727Z,6.93
2018-05-01T01:26:31.141Z,6.87
2018-05-01T01:28:59.359Z,3.43
2018-05-01T01:31:26.804Z,8.60
2018-05-01T01:33:54.291Z,3.00
2018-05-01T01:36:21.323Z,5.47
2018-05-01T01:38:48.267Z,7.97
2018-05-01T01:41:15.200Z,3.07
2018-05-01T01:43:42.135Z,4.33
2018-05-01T01:46:09.108Z,8.30
2018-05-01T01:48:36.050Z,3.80
2018-05-01T01:51:02.979Z,7.07
2018-05-01T01:53:29.915Z,7.63
2018-05-01T01:55:56.864Z,10.90
2018-05-01T01:58:23.807Z,14.50
2018-05-01T02:00:50.774Z,18.20
2018-05-01T02:03:17.705Z,10.63
2018-05-01T02:05:44.662Z,8.67
2018-05-01T02:08:11.610Z,7.60
2018-05-01T02:10:38.548Z,10.20
2018-05-01T02:13:05.479Z,2.53
2018-05-01T02:15:32.427Z,11.77
2018-05-01T02:17:59.397Z,4.30
2018-05-01T02:20:26.341Z,6.53
2018-05-01T02:22:53.376Z,6.33
2018-05-01T02:25:20.332Z,5.87
2018-05-01T02:27:47.277Z,8.90
2018-05-01T02:30:14.240Z,7.47
2018-05-01T02:32:41.175Z,5.20
2018-05-01T02:35:08.095Z,6.97
2018-05-01T02:37:35.067Z,8.73
2018-05-01T02:40:02.003Z,8.80
2018-05-01T02:42:28.948Z,8.90
2018-05-01T02:44:55.891Z,12.53
2018-05-01T02:47:22.847Z,6.20
2018-05-01T02:49:49.888Z,5.47
2018-05-01T02:52:16.938Z,7.23
2018-05-01T02:54:43.920Z,5.77
2018-05-01T02:57:11.643Z,7.27
2018-05-01T02:59:38.699Z,6.23
2018-05-01T03:02:05.660Z,12.30
2018-05-01T03:04:32.633Z,12.23
2018-05-01T03:06:59.572Z,7.57
2018-05-01T03:09:26.575Z,11.97
2018-05-01T03:11:53.523Z,10.27
2018-05-01T03:14:20.563Z,6.40
2018-05-01T03:16:47.519Z,4.87
2018-05-01T03:19:14.462Z,8.60
2018-05-01T03:21:41.430Z,10.07
2018-05-01T03:24:08.491Z,8.70
2018-05-01T03:26:35.415Z,7.80
2018-05-01T03:29:02.448Z,13.53
2018-05-01T03:31:29.391Z,10.67
2018-05-01T03:33:56.331Z,8.77
2018-05-01T03:36:23.379Z,10.30
2018-05-01T03:38:50.325Z,9.27
2018-05-01T03:41:17.283Z,11.60
2018-05-01T03:43:44.323Z,12.00
2018-05-01T03:46:11.267Z,9.03
2018-05-01T03:48:38.227Z,7.80
2018-05-01T03:51:05.158Z,8.07
2018-05-01T03:53:32.095Z,14.17
2018-05-01T03:55:59.051Z,9.50
2018-05-01T03:58:26.086Z,7.93
2018-05-01T04:00:53.036Z,8.43
2018-05-01T04:03:19.970Z,5.67
2018-05-01T04:05:46.929Z,8.63
2018-05-01T04:08:13.859Z,8.17
2018-05-01T04:10:40.803Z,10.63
2018-05-01T04:13:07.756Z,10.83
2018-05-01T04:15:34.687Z,12.30
2018-05-01T04:18:01.622Z,6.13
2018-05-01T04:20:29.331Z,7.77
2018-05-01T04:22:56.271Z,7.97
2018-05-01T04:25:23.311Z,7.80
2018-05-01T04:27:50.371Z,10.03
2018-05-01T04:30:17.415Z,4.80
2018-05-01T04:32:44.342Z,11.40
2018-05-01T04:35:11.288Z,6.03
2018-05-01T04:37:38.238Z,6.63
2018-05-01T04:40:05.182Z,12.73
2018-05-01T04:42:32.134Z,6.50
2018-05-01T04:44:59.082Z,9.13
2018-05-01T04:47:26.019Z,12.37
2018-05-01T04:49:53.067Z,10.13
2018-05-01T04:52:20.018Z,7.97
2018-05-01T04:54:46.958Z,5.60
2018-05-01T04:57:13.955Z,11.10
2018-05-01T04:59:40.959Z,13.47
2018-05-01T05:02:07.891Z,9.97
2018-05-01T05:04:34.867Z,10.30
2018-05-01T05:07:01.894Z,9.17
2018-05-01T05:09:28.893Z,10.77
2018-05-01T05:11:55.787Z,7.77
2018-05-01T05:14:22.731Z,7.33
2018-05-01T05:16:49.667Z,6.30
2018-05-01T05:19:16.723Z,15.70
2018-05-01T05:21:43.702Z,15.00
2018-05-01T05:24:10.626Z,11.07
2018-05-01T05:26:37.658Z,11.10
2018-05-01T05:29:04.598Z,7.57
2018-05-01T05:31:31.533Z,8.50
2018-05-01T05:33:58.499Z,5.07
2018-05-01T05:36:25.450Z,6.57
2018-05-01T05:38:52.383Z,9.03
2018-05-01T05:41:19.455Z,6.53
2018-05-01T05:43:46.478Z,5.70
2018-05-01T05:46:13.412Z,10.83
2018-05-01T05:48:40.362Z,7.97
2018-05-01T05:51:07.291Z,8.03
2018-05-01T05:53:35.074Z,5.57
2018-05-01T05:56:02.023Z,10.93
2018-05-01T05:58:28.967Z,5.47
2018-05-01T06:00:55.920Z,11.13
2018-05-01T06:03:22.885Z,5.83
2018-05-01T06:05:49.823Z,7.73
2018-05-01T06:08:16.771Z,4.37
2018-05-01T06:10:43.798Z,6.47
2018-05-01T06:13:10.750Z,8.77
2018-05-01T06:15:37.684Z,7.23
2018-05-01T06:18:04.623Z,6.73
2018-05-01T06:20:31.563Z,10.53
2018-05-01T06:22:58.574Z,9.10
2018-05-01T06:25:26.391Z,7.70
2018-05-01T06:27:53.334Z,6.67
2018-05-01T06:30:20.271Z,12.67
2018-05-01T06:32:47.231Z,10.13
2018-05-01T06:35:14.276Z,9.57
2018-05-01T06:37:41.219Z,8.67
2018-05-01T06:40:08.221Z,13.43
2018-05-01T06:45:12.607Z,12.00
2018-05-01T06:47:39.659Z,14.50
2018-05-01T06:50:06.601Z,12.37
2018-05-01T06:52:33.549Z,12.57
2018-05-01T06:55:00.480Z,15.97
2018-05-01T06:57:27.425Z,11.23
2018-05-01T06:59:54.486Z,21.40
2018-05-01T07:02:21.432Z,17.00
2018-05-01T07:04:48.487Z,15.83
2018-05-01T07:07:15.531Z,24.07
2018-05-01T07:09:42.471Z,18.50
2018-05-01T07:12:09.523Z,16.40
2018-05-01T07:14:36.471Z,21.47
2018-05-01T07:17:03.410Z,24.40
2018-05-01T07:19:30.355Z,22.40
2018-05-01T07:21:57.299Z,18.90
2018-05-01T07:24:24.232Z,17.77
2018-05-01T07:26:51.177Z,18.27
2018-05-01T07:29:18.152Z,22.33
2018-05-01T07:31:45.071Z,18.00
2018-05-01T07:34:12.019Z,21.77
2018-05-01T07:36:38.963Z,25.17
2018-05-01T07:39:05.895Z,28.77
2018-05-01T07:41:32.854Z,22.70
2018-05-01T07:43:59.799Z,23.80
2018-05-01T07:46:26.739Z,31.80
2018-05-01T07:48:53.707Z,15.67
2018-05-01T07:51:20.657Z,16.47
2018-05-01T07:53:47.695Z,15.73
2018-05-01T07:56:14.640Z,19.37
2018-05-01T07:58:41.595Z,18.97
2018-05-01T08:01:08.532Z,21.43
2018-05-01T08:03:35.580Z,19.40
2018-05-01T08:06:02.638Z,28.33
2018-05-01T08:08:29.675Z,18.40
2018-05-01T08:10:56.700Z,21.13
2018-05-01T08:13:23.688Z,18.33
2018-05-01T08:15:50.616Z,24.00
2018-05-01T08:18:17.551Z,16.20
2018-05-01T08:20:44.664Z,18.33
2018-05-01T08:23:12.355Z,19.67
2018-05-01T08:25:39.297Z,21.47
2018-05-01T08:28:06.251Z,18.93
2018-05-01T08:30:33.361Z,14.57
2018-05-01T08:33:00.255Z,19.97
2018-05-01T08:35:27.211Z,20.30
2018-05-01T08:37:54.948Z,25.97
2018-05-01T08:40:22.026Z,24.77
2018-05-01T08:42:48.982Z,24.50
2018-05-01T08:45:15.953Z,14.53
2018-05-01T08:47:42.886Z,16.57
2018-05-01T08:50:09.908Z,17.60
2018-05-01T08:52:36.879Z,13.83
2018-05-01T08:55:03.831Z,12.37
2018-05-01T08:57:30.787Z,14.37
2018-05-01T08:59:58.508Z,19.80
2018-05-01T09:02:25.440Z,14.10
2018-05-01T09:04:52.398Z,13.83
2018-05-01T09:07:19.342Z,15.20
2018-05-01T09:09:46.275Z,19.97
2018-05-01T09:12:13.235Z,18.80
2018-05-01T09:14:40.168Z,14.93
2018-05-01T09:17:07.115Z,11.93
2018-05-01T09:19:34.110Z,12.50
2018-05-01T09:22:01.063Z,13.47
2018-05-01T09:24:28.780Z,12.27
2018-05-01T09:26:55.834Z,9.47
2018-05-01T09:29:22.790Z,9.70
2018-05-01T09:31:49.831Z,13.37
2018-05-01T09:34:16.787Z,11.73
2018-05-01T09:36:43.723Z,14.30
2018-05-01T09:39:10.782Z,11.87
2018-05-01T09:41:37.739Z,9.10
2018-05-01T09:44:04.772Z,10.73
2018-05-01T09:46:31.848Z,9.97
2018-05-01T09:48:58.795Z,9.10
2018-05-01T09:51:25.829Z,10.60
2018-05-01T09:53:53.363Z,14.23
2018-05-01T09:56:20.808Z,9.80
2018-05-01T09:58:48.239Z,9.17
2018-05-01T10:01:16.448Z,8.63
2018-05-01T10:03:43.915Z,12.07
2018-05-01T10:06:11.356Z,10.20
2018-05-01T10:08:38.811Z,7.60
2018-05-01T10:11:06.259Z,9.97
2018-05-01T10:13:33.681Z,7.83
2018-05-01T10:16:01.915Z,9.63
2018-05-01T10:18:29.383Z,12.10
2018-05-01T10:20:56.847Z,12.03
2018-05-01T10:23:24.337Z,9.37
2018-05-01T10:25:51.736Z,10.67
2018-05-01T10:28:19.183Z,10.00
2018-05-01T10:30:46.623Z,13.50
2018-05-01T10:33:14.064Z,14.33
2018-05-01T10:35:42.262Z,8.17
2018-05-01T10:38:09.754Z,10.07
2018-05-01T10:40:37.209Z,13.50
2018-05-01T10:43:04.650Z,11.63
2018-05-01T10:45:32.121Z,9.47
2018-05-01T10:47:59.584Z,11.30
2018-05-01T10:50:27.006Z,12.10
2018-05-01T10:52:54.445Z,11.30
2018-05-01T10:55:22.752Z,10.70
2018-05-01T10:57:50.235Z,9.07
2018-05-01T11:00:17.681Z,12.60
2018-05-01T11:02:45.127Z,6.77
2018-05-01T11:05:12.566Z,12.97
2018-05-01T11:07:39.991Z,9.90
2018-05-01T11:10:07.623Z,9.53
2018-05-01T11:12:35.160Z,9.67
2018-05-01T11:15:02.643Z,12.10
2018-05-01T11:17:30.155Z,7.17
2018-05-01T11:19:57.577Z,7.90
2018-05-01T11:22:25.003Z,6.67
2018-05-01T11:24:52.459Z,9.93
2018-05-01T11:27:19.924Z,7.13
2018-05-01T11:29:47.378Z,10.23
2018-05-01T11:32:14.833Z,6.63
2018-05-01T11:34:42.284Z,2.97
2018-05-01T11:37:09.727Z,5.33
2018-05-01T11:39:37.199Z,4.83
2018-05-01T11:42:04.669Z,4.70
2018-05-01T11:44:32.095Z,5.37
2018-05-01T11:46:59.536Z,10.77
2018-05-01T11:49:27.018Z,6.40
2018-05-01T11:51:54.455Z,3.23
2018-05-01T11:54:21.943Z,4.90
2018-05-01T11:56:49.400Z,4.50
2018-05-01T11:59:16.851Z,3.87
2018-05-01T12:01:44.334Z,4.97
2018-05-01T12:04:11.751Z,6.93
2018-05-01T12:06:39.255Z,7.13
2018-05-01T12:09:06.690Z,6.53
2018-05-01T12:11:34.216Z,4.83
2018-05-01T12:14:02.407Z,6.23
2018-05-01T12:16:29.893Z,7.73
2018-05-01T12:18:57.317Z,6.17
2018-05-01T12:21:24.760Z,3.60
2018-05-01T12:23:52.970Z,3.23
2018-05-01T12:26:20.437Z,3.10
2018-05-01T12:28:47.879Z,3.67
2018-05-01T12:31:15.320Z,7.80
2018-05-01T12:33:42.763Z,3.40
2018-05-01T12:36:10.980Z,7.13
2018-05-01T12:38:38.424Z,3.07
2018-05-01T12:41:05.896Z,5.57
2018-05-01T12:43:33.338Z,4.30
2018-05-01T12:46:00.782Z,3.00
2018-05-01T12:48:28.287Z,3.70
2018-05-01T12:50:55.635Z,5.53
2018-05-01T12:53:23.093Z,5.33
2018-05-01T12:55:50.562Z,5.77
2018-05-01T12:58:17.991Z,3.17
2018-05-01T13:00:45.447Z,3.23
2018-05-01T13:03:12.875Z,3.97
2018-05-01T13:05:40.313Z,2.47
2018-05-01T13:08:08.547Z,1.93
2018-05-01T13:10:35.987Z,4.60
2018-05-01T13:13:03.444Z,2.73
2018-05-01T13:15:30.913Z,2.13
2018-05-01T13:17:58.342Z,3.27
2018-05-01T13:20:25.779Z,3.63
2018-05-01T13:22:53.999Z,2.97
2018-05-01T13:25:21.487Z,4.43
2018-05-01T13:27:48.912Z,4.13
2018-05-01T13:30:16.379Z,1.87
2018-05-01T13:32:43.871Z,4.67
2018-05-01T13:35:11.383Z,1.83
2018-05-01T13:37:38.843Z,6.90
2018-05-01T13:40:06.300Z,3.23
2018-05-01T13:42:33.736Z,3.50
2018-05-01T13:45:01.177Z,1.73
2018-05-01T13:47:28.636Z,4.20
2018-05-01T13:49:56.061Z,2.90
2018-05-01T13:52:23.531Z,4.43
2018-05-01T13:54:51.126Z,3.43
2018-05-01T13:57:18.579Z,2.63
2018-05-01T13:59:46.016Z,4.03
2018-05-01T14:02:13.457Z,5.67
2018-05-01T14:04:40.935Z,1.17
2018-05-01T14:07:08.391Z,2.53
2018-05-01T14:09:35.815Z,5.50
2018-05-01T14:12:04.065Z,3.97
2018-05-01T14:14:31.491Z,3.80
2018-05-01T14:16:58.995Z,2.23
2018-05-01T14:19:27.207Z,4.33
2018-05-01T14:21:54.665Z,5.83
2018-05-01T14:24:22.126Z,5.30
2018-05-01T14:26:49.555Z,3.00
2018-05-01T14:29:17.054Z,3.80
2018-05-01T14:31:44.502Z,5.70
2018-05-01T14:34:11.967Z,2.97
2018-05-01T14:36:39.415Z,3.17
2018-05-01T14:39:06.842Z,4.90
2018-05-01T14:41:34.274Z,6.17
2018-05-01T14:44:01.801Z,7.17
2018-05-01T14:46:29.237Z,5.20
2018-05-01T14:48:56.693Z,6.93
2018-05-01T14:51:24.159Z,3.53
2018-05-01T14:53:51.584Z,2.73
2018-05-01T14:56:19.015Z,2.83
2018-05-01T14:58:47.226Z,2.50
2018-05-01T15:01:14.706Z,4.87
2018-05-01T15:03:42.147Z,4.80
2018-05-01T15:06:09.670Z,2.63
2018-05-01T15:08:37.889Z,2.47
2018-05-01T15:11:05.324Z,2.50
2018-05-01T15:13:32.804Z,3.43
2018-05-01T15:16:00.283Z,3.10
2018-05-01T15:18:27.820Z,1.73
2018-05-01T15:20:55.298Z,3.53
2018-05-01T15:23:22.755Z,3.80
2018-05-01T15:25:50.200Z,4.45
2018-05-01T15:28:17.639Z,2.15
2018-05-01T15:30:45.063Z,3.08
2018-05-01T15:33:13.283Z,5.75
2018-05-01T15:35:40.723Z,1.73
2018-05-01T15:38:08.195Z,3.22
2018-05-01T15:40:35.637Z,3.65
2018-05-01T15:43:03.083Z,1.77
2018-05-01T15:45:31.287Z,1.98
2018-05-01T15:47:58.728Z,3.80
2018-05-01T15:50:26.178Z,4.28
2018-05-01T15:52:53.608Z,3.03
2018-05-01T15:55:21.836Z,1.73
2018-05-01T15:57:49.280Z,5.60
2018-05-01T16:00:16.747Z,12.77
2018-05-01T16:02:44.178Z,2.53
2018-05-01T16:05:11.615Z,2.22
2018-05-01T16:07:39.839Z,3.75
2018-05-01T16:10:07.289Z,2.35
2018-05-01T16:12:34.722Z,2.50
2018-05-01T16:15:02.148Z,4.20
2018-05-01T16:17:29.585Z,2.05
2018-05-01T16:19:57.033Z,4.70
2018-05-01T16:22:24.500Z,3.05
2018-05-01T16:24:51.937Z,2.45
2018-05-01T16:27:19.387Z,1.58
2018-05-01T16:29:46.824Z,3.72
2018-05-01T16:32:14.308Z,1.65
2018-05-01T16:34:41.767Z,3.42
2018-05-01T16:37:09.215Z,3.62
2018-05-01T16:39:36.659Z,2.07
2018-05-01T16:42:04.126Z,2.63
2018-05-01T16:44:31.539Z,2.03
2018-05-01T16:46:59.744Z,1.13
2018-05-01T16:49:27.227Z,1.30
2018-05-01T16:51:54.655Z,1.00
2018-05-01T16:54:22.084Z,4.50
2018-05-01T16:56:49.627Z,2.33
2018-05-01T16:59:17.769Z,1.23
2018-05-01T17:01:45.219Z,2.63
2018-05-01T17:04:12.661Z,0.50
2018-05-01T17:06:40.104Z,0.77
2018-05-01T17:09:07.552Z,2.27
2018-05-01T17:11:35.084Z,1.17
2018-05-01T17:14:02.547Z,0.97
2018-05-01T17:16:29.980Z,1.07
2018-05-01T17:18:57.468Z,0.83
2018-05-01T17:21:24.895Z,0.70
2018-05-01T17:23:52.322Z,0.50
2018-05-01T17:26:20.520Z,0.60
2018-05-01T17:28:47.947Z,1.60
2018-05-01T17:31:15.395Z,1.03
2018-05-01T17:33:42.867Z,1.40
2018-05-01T17:36:11.062Z,0.50
2018-05-01T17:38:38.614Z,0.57
2018-05-01T17:41:06.052Z,0.40
2018-05-01T17:43:33.484Z,0.60
2018-05-01T17:46:01.710Z,0.47
2018-05-01T17:48:29.938Z,1.23
2018-05-01T17:50:57.372Z,1.43
2018-05-01T17:53:24.811Z,0.40
2018-05-01T17:55:53.033Z,1.07
2018-05-01T17:58:20.503Z,0.43
2018-05-01T18:00:47.927Z,1.57
2018-05-01T18:03:15.408Z,2.00
2018-05-01T18:05:42.846Z,0.77
2018-05-01T18:08:10.271Z,0.73
2018-05-01T18:10:38.482Z,0.67
2018-05-01T18:13:05.958Z,0.73
2018-05-01T18:15:33.391Z,3.03
2018-05-01T18:18:00.853Z,1.70
2018-05-01T18:20:28.259Z,0.73
2018-05-01T18:22:55.687Z,0.93
2018-05-01T18:25:23.242Z,1.37
2018-05-01T18:27:50.692Z,2.35
2018-05-01T18:30:18.125Z,2.43
2018-05-01T18:32:45.569Z,0.80
2018-05-01T18:35:13.779Z,1.63
2018-05-01T18:37:41.212Z,0.70
2018-05-01T18:40:08.659Z,0.70
2018-05-01T18:42:36.093Z,0.87
2018-05-01T18:45:03.656Z,0.97
2018-05-01T18:47:31.881Z,1.83
2018-05-01T18:49:59.325Z,1.47
2018-05-01T18:52:26.807Z,2.90
2018-05-01T18:54:54.239Z,5.73
2018-05-01T18:57:21.660Z,5.17
2018-05-01T18:59:49.865Z,4.03
2018-05-01T19:02:17.343Z,1.50
2018-05-01T19:04:44.917Z,2.10
2018-05-01T19:07:12.264Z,2.00
2018-05-01T19:09:39.715Z,1.70
2018-05-01T19:12:07.143Z,3.30
2018-05-01T19:14:34.584Z,2.03
2018-05-01T19:17:02.795Z,1.00
2018-05-01T19:19:30.235Z,2.20
2018-05-01T19:21:57.731Z,2.10
2018-05-01T19:24:25.194Z,3.57
2018-05-01T19:26:52.663Z,0.90
2018-05-01T19:29:20.102Z,0.90
2018-05-01T19:31:47.543Z,1.00
2018-05-01T19:34:14.997Z,2.07
2018-05-01T19:36:42.455Z,1.77
2018-05-01T19:39:09.883Z,3.57
2018-05-01T19:41:37.388Z,0.70
2018-05-01T19:44:04.846Z,1.53
2018-05-01T19:46:32.291Z,3.50
2018-05-01T19:48:59.719Z,1.80
2018-05-01T19:51:27.217Z,0.60
2018-05-01T19:53:54.659Z,1.43
2018-05-01T19:56:22.147Z,1.00
2018-05-01T19:58:50.338Z,0.80
2018-05-01T20:01:17.771Z,7.73
2018-05-01T20:03:45.285Z,2.77
2018-05-01T20:06:12.743Z,2.63
2018-05-01T20:08:40.342Z,4.47
2018-05-01T20:11:08.811Z,4.23
2018-05-01T20:13:36.275Z,6.83
2018-05-01T20:16:04.813Z,2.30
2018-05-01T20:18:32.270Z,2.90
2018-05-01T20:20:59.695Z,4.77
2018-05-01T20:23:27.159Z,2.53
2018-05-01T20:25:54.602Z,3.30
2018-05-01T20:28:22.063Z,2.63
2018-05-01T20:30:49.638Z,6.17
2018-05-01T20:33:17.120Z,1.43
2018-05-01T20:35:44.672Z,3.43
2018-05-01T20:38:12.126Z,2.40
2018-05-01T20:40:39.647Z,2.67
2018-05-01T20:43:07.151Z,3.90
2018-05-01T20:45:34.751Z,2.33
2018-05-01T20:48:02.974Z,3.80
2018-05-01T20:50:30.423Z,2.20
2018-05-01T20:52:57.886Z,2.20
2018-05-01T20:55:25.326Z,3.27
2018-05-01T20:57:52.739Z,6.00
2018-05-01T21:00:20.302Z,9.57
2018-05-01T21:02:47.823Z,4.73
2018-05-01T21:05:15.247Z,5.90
2018-05-01T21:07:42.695Z,6.13
2018-05-01T21:10:10.124Z,3.93
2018-05-01T21:12:37.548Z,4.20
2018-05-01T21:15:05.001Z,1.90
2018-05-01T21:17:32.431Z,2.97
2018-05-01T21:19:59.851Z,3.20
2018-05-01T21:22:27.281Z,5.53
2018-05-01T21:24:54.712Z,3.30
2018-05-01T21:27:22.137Z,4.03
2018-05-01T21:29:50.345Z,3.00
2018-05-01T21:32:17.779Z,3.73
2018-05-01T21:34:45.199Z,2.03
2018-05-01T21:37:13.480Z,3.33
2018-05-01T21:39:40.908Z,2.63
2018-05-01T21:42:08.332Z,1.80
2018-05-01T21:44:35.806Z,2.07
2018-05-01T21:47:03.288Z,1.90
2018-05-01T21:49:30.754Z,2.23
2018-05-01T21:51:58.300Z,1.17
2018-05-01T21:54:25.738Z,1.63
2018-05-01T21:56:53.163Z,1.60
2018-05-01T21:59:21.363Z,1.43
2018-05-01T22:01:48.792Z,1.60
2018-05-01T22:04:17.001Z,2.23
2018-05-01T22:06:44.423Z,3.23
2018-05-01T22:09:12.635Z,1.83
2018-05-01T22:11:40.075Z,2.50
2018-05-01T22:14:07.517Z,2.57
2018-05-01T22:16:35.709Z,5.63
2018-05-01T22:19:03.175Z,3.53
2018-05-01T22:21:30.598Z,5.40
2018-05-01T22:23:58.787Z,2.27
2018-05-01T22:26:26.273Z,3.00
2018-05-01T22:28:53.815Z,2.93
2018-05-01T22:31:21.282Z,2.77
2018-05-01T22:33:48.787Z,6.23
2018-05-01T22:36:16.156Z,3.90
2018-05-01T22:38:44.358Z,5.30
2018-05-01T22:41:11.831Z,5.43
2018-05-01T22:43:39.379Z,3.77
2018-05-01T22:46:06.796Z,5.83
2018-05-01T22:48:34.990Z,3.03
2018-05-01T22:51:02.428Z,7.63
2018-05-01T22:53:30.632Z,5.87
2018-05-01T22:55:58.103Z,7.33
2018-05-01T22:58:25.549Z,5.33
2018-05-01T23:00:53.019Z,6.60
2018-05-01T23:03:20.466Z,5.97
2018-05-01T23:05:47.925Z,3.23
2018-05-01T23:08:15.353Z,6.20
2018-05-01T23:10:43.552Z,3.67
2018-05-01T23:13:10.983Z,4.40
2018-05-01T23:15:39.208Z,4.50
2018-05-01T23:18:06.654Z,4.27
2018-05-01T23:20:34.091Z,7.27
2018-05-01T23:23:01.607Z,8.23
2018-05-01T23:25:29.037Z,7.50
2018-05-01T23:27:56.479Z,7.63
2018-05-01T23:30:23.928Z,4.60
2018-05-01T23:32:51.395Z,4.57
2018-05-01T23:35:18.924Z,4.40
2018-05-01T23:37:46.420Z,8.90
2018-05-01T23:40:13.850Z,5.60
2018-05-01T23:42:41.335Z,6.57
2018-05-01T23:45:08.771Z,5.00
2018-05-01T23:47:36.200Z,5.77
2018-05-01T23:50:04.412Z,6.97
2018-05-01T23:52:31.875Z,7.80
2018-05-01T23:54:59.351Z,7.93
2018-05-01T23:57:26.795Z,8.13
2018-05-01T23:59:54.255Z,9.00
